sensor_id;sensor_type;location;lat;lon;timestamp;P1;durP1;ratioP1;P2;durP2;ratioP2
13222;SDS011;6676;45.192;5.722;2023-03-01T00:00:29;9.75;;;8.68;;
13222;SDS011;6676;45.192;5.722;2023-03-01T00:03:21;10.82;;;8.70;;
13222;SDS011;6676;45.192;5.722;2023-03-01T00:06:13;9.78;;;8.45;;
13222;SDS011;6676;45.192;5.722;2023-03-01T00:09:05;11.00;;;8.63;;
13222;SDS011;6676;45.192;5.722;2023-03-01T00:12:05;11.12;;;8.98;;
13222;SDS011;6676;45.192;5.722;2023-03-01T00:14:58;10.18;;;8.65;;
13222;SDS011;6676;45.192;5.722;2023-03-01T00:17:52;11.40;;;8.75;;
13222;SDS011;6676;45.192;5.722;2023-03-01T00:20:49;11.25;;;9.38;;
13222;SDS011;6676;45.192;5.722;2023-03-01T00:23:52;10.75;;;9.53;;
13222;SDS011;6676;45.192;5.722;2023-03-01T00:26:35;11.65;;;9.58;;
13222;SDS011;6676;45.192;5.722;2023-03-01T00:29:30;11.57;;;9.40;;
13222;SDS011;6676;45.192;5.722;2023-03-01T00:32:22;10.90;;;8.48;;
13222;SDS011;6676;45.192;5.722;2023-03-01T00:35:14;10.15;;;8.60;;
13222;SDS011;6676;45.192;5.722;2023-03-01T00:38:14;9.90;;;8.75;;
13222;SDS011;6676;45.192;5.722;2023-03-01T00:41:05;10.25;;;9.15;;
13222;SDS011;6676;45.192;5.722;2023-03-01T00:44:01;11.15;;;8.88;;
13222;SDS011;6676;45.192;5.722;2023-03-01T00:46:55;10.98;;;8.95;;
13222;SDS011;6676;45.192;5.722;2023-03-01T00:49:47;11.53;;;9.25;;
13222;SDS011;6676;45.192;5.722;2023-03-01T00:52:38;10.60;;;9.23;;
13222;SDS011;6676;45.192;5.722;2023-03-01T00:55:29;10.28;;;9.15;;
13222;SDS011;6676;45.192;5.722;2023-03-01T00:58:21;10.68;;;9.58;;
13222;SDS011;6676;45.192;5.722;2023-03-01T01:01:14;10.90;;;8.60;;
13222;SDS011;6676;45.192;5.722;2023-03-01T01:04:09;10.53;;;8.73;;
13222;SDS011;6676;45.192;5.722;2023-03-01T01:06:49;11.00;;;9.43;;
13222;SDS011;6676;45.192;5.722;2023-03-01T01:09:41;10.82;;;9.45;;
13222;SDS011;6676;45.192;5.722;2023-03-01T01:12:32;10.38;;;9.08;;
13222;SDS011;6676;45.192;5.722;2023-03-01T01:15:24;11.40;;;9.68;;
13222;SDS011;6676;45.192;5.722;2023-03-01T01:18:15;10.32;;;9.25;;
13222;SDS011;6676;45.192;5.722;2023-03-01T01:21:08;11.10;;;9.30;;
13222;SDS011;6676;45.192;5.722;2023-03-01T01:24:02;10.32;;;9.25;;
13222;SDS011;6676;45.192;5.722;2023-03-01T01:26:54;12.60;;;10.18;;
13222;SDS011;6676;45.192;5.722;2023-03-01T01:29:45;10.45;;;9.30;;
13222;SDS011;6676;45.192;5.722;2023-03-01T01:32:37;11.80;;;9.15;;
13222;SDS011;6676;45.192;5.722;2023-03-01T01:35:29;11.25;;;9.40;;
13222;SDS011;6676;45.192;5.722;2023-03-01T01:38:20;11.38;;;10.03;;
13222;SDS011;6676;45.192;5.722;2023-03-01T01:41:04;13.68;;;10.43;;
13222;SDS011;6676;45.192;5.722;2023-03-01T01:44:15;12.03;;;10.45;;
13222;SDS011;6676;45.192;5.722;2023-03-01T01:47:12;11.97;;;10.58;;
13222;SDS011;6676;45.192;5.722;2023-03-01T01:50:15;15.43;;;12.18;;
13222;SDS011;6676;45.192;5.722;2023-03-01T01:53:10;14.50;;;11.93;;
13222;SDS011;6676;45.192;5.722;2023-03-01T01:56:14;14.10;;;11.50;;
13222;SDS011;6676;45.192;5.722;2023-03-01T01:59:09;14.05;;;12.25;;
13222;SDS011;6676;45.192;5.722;2023-03-01T02:02:02;14.93;;;12.15;;
13222;SDS011;6676;45.192;5.722;2023-03-01T02:04:58;14.73;;;12.10;;
13222;SDS011;6676;45.192;5.722;2023-03-01T02:07:52;16.23;;;12.28;;
13222;SDS011;6676;45.192;5.722;2023-03-01T02:10:44;13.85;;;11.83;;
13222;SDS011;6676;45.192;5.722;2023-03-01T02:13:41;14.47;;;12.13;;
13222;SDS011;6676;45.192;5.722;2023-03-01T02:16:33;13.38;;;11.90;;
13222;SDS011;6676;45.192;5.722;2023-03-01T02:19:28;14.70;;;12.35;;
13222;SDS011;6676;45.192;5.722;2023-03-01T02:22:17;15.58;;;12.25;;
13222;SDS011;6676;45.192;5.722;2023-03-01T02:28:23;14.53;;;11.75;;
13222;SDS011;6676;45.192;5.722;2023-03-01T02:31:23;15.18;;;12.18;;
13222;SDS011;6676;45.192;5.722;2023-03-01T02:34:33;14.18;;;11.65;;
13222;SDS011;6676;45.192;5.722;2023-03-01T02:37:24;14.95;;;12.28;;
13222;SDS011;6676;45.192;5.722;2023-03-01T02:40:17;15.15;;;11.53;;
13222;SDS011;6676;45.192;5.722;2023-03-01T02:43:10;14.33;;;12.43;;
13222;SDS011;6676;45.192;5.722;2023-03-01T02:46:08;15.08;;;12.40;;
13222;SDS011;6676;45.192;5.722;2023-03-01T02:48:59;15.10;;;12.30;;
13222;SDS011;6676;45.192;5.722;2023-03-01T02:52:00;14.75;;;11.97;;
13222;SDS011;6676;45.192;5.722;2023-03-01T02:54:55;14.70;;;12.37;;
13222;SDS011;6676;45.192;5.722;2023-03-01T03:00:54;14.00;;;11.63;;
13222;SDS011;6676;45.192;5.722;2023-03-01T03:03:48;14.47;;;12.03;;
13222;SDS011;6676;45.192;5.722;2023-03-01T03:06:52;15.03;;;12.30;;
13222;SDS011;6676;45.192;5.722;2023-03-01T03:09:43;14.43;;;12.25;;
13222;SDS011;6676;45.192;5.722;2023-03-01T03:12:35;16.12;;;12.47;;
13222;SDS011;6676;45.192;5.722;2023-03-01T03:15:27;14.93;;;12.63;;
13222;SDS011;6676;45.192;5.722;2023-03-01T03:18:09;14.55;;;12.53;;
13222;SDS011;6676;45.192;5.722;2023-03-01T03:21:02;16.35;;;12.43;;
13222;SDS011;6676;45.192;5.722;2023-03-01T03:23:56;14.63;;;12.40;;
13222;SDS011;6676;45.192;5.722;2023-03-01T03:26:47;14.78;;;12.65;;
13222;SDS011;6676;45.192;5.722;2023-03-01T03:29:38;13.72;;;11.97;;
13222;SDS011;6676;45.192;5.722;2023-03-01T03:32:30;15.13;;;12.40;;
13222;SDS011;6676;45.192;5.722;2023-03-01T03:35:22;15.68;;;12.75;;
13222;SDS011;6676;45.192;5.722;2023-03-01T03:38:18;16.57;;;13.62;;
13222;SDS011;6676;45.192;5.722;2023-03-01T03:41:10;16.02;;;13.05;;
13222;SDS011;6676;45.192;5.722;2023-03-01T03:44:02;16.20;;;13.18;;
13222;SDS011;6676;45.192;5.722;2023-03-01T03:46:54;17.17;;;13.55;;
13222;SDS011;6676;45.192;5.722;2023-03-01T03:49:45;15.40;;;13.13;;
13222;SDS011;6676;45.192;5.722;2023-03-01T03:52:37;14.83;;;13.00;;
13222;SDS011;6676;45.192;5.722;2023-03-01T03:55:34;15.72;;;12.95;;
13222;SDS011;6676;45.192;5.722;2023-03-01T03:58:28;17.48;;;13.35;;
13222;SDS011;6676;45.192;5.722;2023-03-01T04:01:19;16.70;;;13.80;;
13222;SDS011;6676;45.192;5.722;2023-03-01T04:04:11;16.93;;;12.80;;
13222;SDS011;6676;45.192;5.722;2023-03-01T04:07:04;16.20;;;12.95;;
13222;SDS011;6676;45.192;5.722;2023-03-01T04:09:46;14.98;;;13.15;;
13222;SDS011;6676;45.192;5.722;2023-03-01T04:12:37;16.57;;;13.62;;
13222;SDS011;6676;45.192;5.722;2023-03-01T04:15:31;15.95;;;13.48;;
13222;SDS011;6676;45.192;5.722;2023-03-01T04:18:23;18.10;;;13.60;;
13222;SDS011;6676;45.192;5.722;2023-03-01T04:21:15;15.25;;;12.35;;
13222;SDS011;6676;45.192;5.722;2023-03-01T04:24:08;15.80;;;13.18;;
13222;SDS011;6676;45.192;5.722;2023-03-01T04:27:01;16.35;;;12.70;;
13222;SDS011;6676;45.192;5.722;2023-03-01T04:29:56;15.50;;;12.93;;
13222;SDS011;6676;45.192;5.722;2023-03-01T04:32:48;15.45;;;13.20;;
13222;SDS011;6676;45.192;5.722;2023-03-01T04:35:39;15.72;;;13.45;;
13222;SDS011;6676;45.192;5.722;2023-03-01T04:38:31;16.20;;;13.48;;
13222;SDS011;6676;45.192;5.722;2023-03-01T04:41:23;16.70;;;13.20;;
13222;SDS011;6676;45.192;5.722;2023-03-01T04:44:15;16.00;;;13.28;;
13222;SDS011;6676;45.192;5.722;2023-03-01T04:47:08;15.28;;;12.93;;
13222;SDS011;6676;45.192;5.722;2023-03-01T04:50:00;16.45;;;13.45;;
13222;SDS011;6676;45.192;5.722;2023-03-01T04:52:52;16.17;;;13.60;;
13222;SDS011;6676;45.192;5.722;2023-03-01T04:56:03;17.32;;;13.72;;
13222;SDS011;6676;45.192;5.722;2023-03-01T04:58:55;17.77;;;13.80;;
13222;SDS011;6676;45.192;5.722;2023-03-01T05:01:48;19.87;;;14.00;;
13222;SDS011;6676;45.192;5.722;2023-03-01T05:04:40;17.27;;;13.98;;
13222;SDS011;6676;45.192;5.722;2023-03-01T05:07:31;16.17;;;13.90;;
13222;SDS011;6676;45.192;5.722;2023-03-01T05:10:23;17.62;;;13.80;;
13222;SDS011;6676;45.192;5.722;2023-03-01T05:13:17;16.75;;;13.60;;
13222;SDS011;6676;45.192;5.722;2023-03-01T05:16:10;16.60;;;13.83;;
13222;SDS011;6676;45.192;5.722;2023-03-01T05:19:02;16.20;;;13.55;;
13222;SDS011;6676;45.192;5.722;2023-03-01T05:21:55;18.40;;;13.75;;
13222;SDS011;6676;45.192;5.722;2023-03-01T05:24:53;12.45;;;9.90;;
13222;SDS011;6676;45.192;5.722;2023-03-01T05:27:45;14.53;;;12.95;;
13222;SDS011;6676;45.192;5.722;2023-03-01T05:30:36;17.57;;;13.90;;
13222;SDS011;6676;45.192;5.722;2023-03-01T05:33:28;16.95;;;13.95;;
13222;SDS011;6676;45.192;5.722;2023-03-01T05:36:19;16.85;;;14.13;;
13222;SDS011;6676;45.192;5.722;2023-03-01T05:39:10;17.32;;;13.35;;
13222;SDS011;6676;45.192;5.722;2023-03-01T05:42:02;17.10;;;13.60;;
13222;SDS011;6676;45.192;5.722;2023-03-01T05:44:53;16.17;;;13.62;;
13222;SDS011;6676;45.192;5.722;2023-03-01T05:47:46;17.70;;;14.40;;
13222;SDS011;6676;45.192;5.722;2023-03-01T05:50:39;16.85;;;14.03;;
13222;SDS011;6676;45.192;5.722;2023-03-01T05:53:32;18.37;;;14.23;;
13222;SDS011;6676;45.192;5.722;2023-03-01T05:56:25;18.77;;;13.72;;
13222;SDS011;6676;45.192;5.722;2023-03-01T05:59:21;17.05;;;13.88;;
13222;SDS011;6676;45.192;5.722;2023-03-01T06:02:14;16.30;;;13.43;;
13222;SDS011;6676;45.192;5.722;2023-03-01T06:05:07;16.73;;;13.38;;
13222;SDS011;6676;45.192;5.722;2023-03-01T06:08:01;16.10;;;13.17;;
13222;SDS011;6676;45.192;5.722;2023-03-01T06:10:52;19.07;;;14.45;;
13222;SDS011;6676;45.192;5.722;2023-03-01T06:13:44;16.32;;;13.60;;
13222;SDS011;6676;45.192;5.722;2023-03-01T06:16:36;17.05;;;14.60;;
13222;SDS011;6676;45.192;5.722;2023-03-01T06:19:28;18.23;;;14.60;;
13222;SDS011;6676;45.192;5.722;2023-03-01T06:22:20;19.05;;;14.40;;
13222;SDS011;6676;45.192;5.722;2023-03-01T06:25:12;18.02;;;14.13;;
13222;SDS011;6676;45.192;5.722;2023-03-01T06:28:06;18.60;;;14.20;;
13222;SDS011;6676;45.192;5.722;2023-03-01T06:30:57;16.80;;;13.75;;
13222;SDS011;6676;45.192;5.722;2023-03-01T06:33:49;16.45;;;13.38;;
13222;SDS011;6676;45.192;5.722;2023-03-01T06:36:40;17.77;;;14.63;;
13222;SDS011;6676;45.192;5.722;2023-03-01T06:39:32;21.75;;;15.30;;
13222;SDS011;6676;45.192;5.722;2023-03-01T06:42:23;20.48;;;14.93;;
13222;SDS011;6676;45.192;5.722;2023-03-01T06:45:15;18.90;;;14.98;;
13222;SDS011;6676;45.192;5.722;2023-03-01T06:48:08;18.23;;;14.50;;
13222;SDS011;6676;45.192;5.722;2023-03-01T06:50:59;20.57;;;15.05;;
13222;SDS011;6676;45.192;5.722;2023-03-01T06:53:52;18.32;;;14.60;;
13222;SDS011;6676;45.192;5.722;2023-03-01T06:56:48;17.42;;;14.90;;
13222;SDS011;6676;45.192;5.722;2023-03-01T06:59:42;19.20;;;14.47;;
13222;SDS011;6676;45.192;5.722;2023-03-01T07:02:34;19.32;;;15.45;;
13222;SDS011;6676;45.192;5.722;2023-03-01T07:05:27;21.40;;;15.75;;
13222;SDS011;6676;45.192;5.722;2023-03-01T07:08:18;19.37;;;14.83;;
13222;SDS011;6676;45.192;5.722;2023-03-01T07:11:10;22.32;;;16.50;;
13222;SDS011;6676;45.192;5.722;2023-03-01T07:14:02;25.75;;;18.55;;
13222;SDS011;6676;45.192;5.722;2023-03-01T07:16:56;25.05;;;18.85;;
13222;SDS011;6676;45.192;5.722;2023-03-01T07:19:48;26.40;;;17.45;;
13222;SDS011;6676;45.192;5.722;2023-03-01T07:22:40;23.85;;;18.00;;
13222;SDS011;6676;45.192;5.722;2023-03-01T07:25:32;24.12;;;18.12;;
13222;SDS011;6676;45.192;5.722;2023-03-01T07:28:24;25.17;;;17.87;;
13222;SDS011;6676;45.192;5.722;2023-03-01T07:31:16;25.77;;;17.55;;
13222;SDS011;6676;45.192;5.722;2023-03-01T07:34:07;20.67;;;16.83;;
13222;SDS011;6676;45.192;5.722;2023-03-01T07:36:59;25.00;;;17.45;;
13222;SDS011;6676;45.192;5.722;2023-03-01T07:39:51;20.12;;;15.70;;
13222;SDS011;6676;45.192;5.722;2023-03-01T07:42:43;22.55;;;15.55;;
13222;SDS011;6676;45.192;5.722;2023-03-01T07:45:35;21.65;;;15.72;;
13222;SDS011;6676;45.192;5.722;2023-03-01T07:48:27;22.25;;;15.40;;
13222;SDS011;6676;45.192;5.722;2023-03-01T07:51:19;23.67;;;17.35;;
13222;SDS011;6676;45.192;5.722;2023-03-01T07:54:10;31.70;;;18.23;;
13222;SDS011;6676;45.192;5.722;2023-03-01T07:57:05;25.32;;;17.98;;
13222;SDS011;6676;45.192;5.722;2023-03-01T07:59:56;28.05;;;18.05;;
13222;SDS011;6676;45.192;5.722;2023-03-01T08:02:50;24.90;;;17.60;;
13222;SDS011;6676;45.192;5.722;2023-03-01T08:05:41;31.12;;;18.30;;
13222;SDS011;6676;45.192;5.722;2023-03-01T08:08:46;26.33;;;18.42;;
13222;SDS011;6676;45.192;5.722;2023-03-01T08:11:38;24.75;;;17.45;;
13222;SDS011;6676;45.192;5.722;2023-03-01T08:14:30;27.30;;;17.73;;
13222;SDS011;6676;45.192;5.722;2023-03-01T08:17:23;25.62;;;16.50;;
13222;SDS011;6676;45.192;5.722;2023-03-01T08:20:16;24.77;;;16.80;;
13222;SDS011;6676;45.192;5.722;2023-03-01T08:23:08;23.62;;;17.30;;
13222;SDS011;6676;45.192;5.722;2023-03-01T08:26:07;24.30;;;17.20;;
13222;SDS011;6676;45.192;5.722;2023-03-01T08:29:01;24.67;;;17.32;;
13222;SDS011;6676;45.192;5.722;2023-03-01T08:31:53;25.10;;;18.20;;
13222;SDS011;6676;45.192;5.722;2023-03-01T08:34:46;24.30;;;17.15;;
13222;SDS011;6676;45.192;5.722;2023-03-01T08:37:38;24.25;;;17.73;;
13222;SDS011;6676;45.192;5.722;2023-03-01T08:40:30;25.08;;;16.77;;
13222;SDS011;6676;45.192;5.722;2023-03-01T08:43:22;21.07;;;16.27;;
13222;SDS011;6676;45.192;5.722;2023-03-01T08:46:14;23.87;;;16.48;;
13222;SDS011;6676;45.192;5.722;2023-03-01T08:49:07;26.52;;;17.00;;
13222;SDS011;6676;45.192;5.722;2023-03-01T08:52:01;26.65;;;18.23;;
13222;SDS011;6676;45.192;5.722;2023-03-01T08:54:54;25.70;;;16.82;;
13222;SDS011;6676;45.192;5.722;2023-03-01T08:57:45;28.10;;;18.20;;
13222;SDS011;6676;45.192;5.722;2023-03-01T09:00:39;25.57;;;16.67;;
13222;SDS011;6676;45.192;5.722;2023-03-01T09:03:31;23.12;;;16.73;;
13222;SDS011;6676;45.192;5.722;2023-03-01T09:06:24;28.65;;;17.92;;
13222;SDS011;6676;45.192;5.722;2023-03-01T09:09:18;26.27;;;16.97;;
13222;SDS011;6676;45.192;5.722;2023-03-01T09:12:10;23.18;;;16.95;;
13222;SDS011;6676;45.192;5.722;2023-03-01T09:15:01;29.80;;;17.30;;
13222;SDS011;6676;45.192;5.722;2023-03-01T09:17:57;23.67;;;17.67;;
13222;SDS011;6676;45.192;5.722;2023-03-01T09:20:49;24.92;;;17.15;;
13222;SDS011;6676;45.192;5.722;2023-03-01T09:23:44;21.90;;;17.05;;
13222;SDS011;6676;45.192;5.722;2023-03-01T09:26:36;22.85;;;17.10;;
13222;SDS011;6676;45.192;5.722;2023-03-01T09:29:28;26.95;;;18.25;;
13222;SDS011;6676;45.192;5.722;2023-03-01T09:32:13;24.63;;;17.00;;
13222;SDS011;6676;45.192;5.722;2023-03-01T09:35:06;23.25;;;17.62;;
13222;SDS011;6676;45.192;5.722;2023-03-01T09:37:58;24.47;;;17.27;;
13222;SDS011;6676;45.192;5.722;2023-03-01T09:40:50;21.57;;;15.88;;
13222;SDS011;6676;45.192;5.722;2023-03-01T09:43:42;22.17;;;16.80;;
13222;SDS011;6676;45.192;5.722;2023-03-01T09:46:41;23.05;;;16.60;;
13222;SDS011;6676;45.192;5.722;2023-03-01T09:49:34;20.55;;;16.60;;
13222;SDS011;6676;45.192;5.722;2023-03-01T09:52:29;20.88;;;16.30;;
13222;SDS011;6676;45.192;5.722;2023-03-01T09:55:26;22.37;;;17.02;;
13222;SDS011;6676;45.192;5.722;2023-03-01T09:58:34;22.35;;;16.45;;
13222;SDS011;6676;45.192;5.722;2023-03-01T10:01:33;20.35;;;15.85;;
13222;SDS011;6676;45.192;5.722;2023-03-01T10:04:35;21.23;;;17.12;;
13222;SDS011;6676;45.192;5.722;2023-03-01T10:07:32;20.88;;;15.50;;
13222;SDS011;6676;45.192;5.722;2023-03-01T10:10:28;22.35;;;16.57;;
13222;SDS011;6676;45.192;5.722;2023-03-01T10:13:25;22.00;;;16.25;;
13222;SDS011;6676;45.192;5.722;2023-03-01T10:16:29;22.10;;;16.50;;
13222;SDS011;6676;45.192;5.722;2023-03-01T10:19:28;21.00;;;16.32;;
13222;SDS011;6676;45.192;5.722;2023-03-01T10:22:20;21.42;;;16.65;;
13222;SDS011;6676;45.192;5.722;2023-03-01T10:25:25;26.10;;;17.15;;
13222;SDS011;6676;45.192;5.722;2023-03-01T10:28:25;20.88;;;16.00;;
13222;SDS011;6676;45.192;5.722;2023-03-01T10:31:19;20.55;;;16.15;;
13222;SDS011;6676;45.192;5.722;2023-03-01T10:34:15;22.58;;;16.93;;
13222;SDS011;6676;45.192;5.722;2023-03-01T10:37:12;20.17;;;15.90;;
13222;SDS011;6676;45.192;5.722;2023-03-01T10:40:08;21.48;;;16.48;;
13222;SDS011;6676;45.192;5.722;2023-03-01T10:43:03;20.75;;;16.37;;
13222;SDS011;6676;45.192;5.722;2023-03-01T10:45:56;20.77;;;16.20;;
13222;SDS011;6676;45.192;5.722;2023-03-01T10:48:50;24.07;;;17.87;;
13222;SDS011;6676;45.192;5.722;2023-03-01T10:51:56;23.02;;;16.20;;
13222;SDS011;6676;45.192;5.722;2023-03-01T10:54:52;22.05;;;17.32;;
13222;SDS011;6676;45.192;5.722;2023-03-01T10:57:45;23.45;;;16.12;;
13222;SDS011;6676;45.192;5.722;2023-03-01T11:00:46;21.07;;;16.35;;
13222;SDS011;6676;45.192;5.722;2023-03-01T11:03:39;21.95;;;17.15;;
13222;SDS011;6676;45.192;5.722;2023-03-01T11:06:33;21.00;;;16.23;;
13222;SDS011;6676;45.192;5.722;2023-03-01T11:09:25;21.90;;;16.45;;
13222;SDS011;6676;45.192;5.722;2023-03-01T11:12:26;22.75;;;15.90;;
13222;SDS011;6676;45.192;5.722;2023-03-01T11:15:22;24.95;;;17.15;;
13222;SDS011;6676;45.192;5.722;2023-03-01T11:18:21;21.00;;;16.30;;
13222;SDS011;6676;45.192;5.722;2023-03-01T11:21:06;21.45;;;17.05;;
13222;SDS011;6676;45.192;5.722;2023-03-01T11:24:00;20.82;;;15.63;;
13222;SDS011;6676;45.192;5.722;2023-03-01T11:26:54;22.00;;;16.40;;
13222;SDS011;6676;45.192;5.722;2023-03-01T11:29:50;20.70;;;16.95;;
13222;SDS011;6676;45.192;5.722;2023-03-01T11:32:47;22.30;;;17.07;;
13222;SDS011;6676;45.192;5.722;2023-03-01T11:35:44;25.10;;;17.45;;
13222;SDS011;6676;45.192;5.722;2023-03-01T11:38:42;25.05;;;17.65;;
13222;SDS011;6676;45.192;5.722;2023-03-01T11:41:36;24.67;;;17.75;;
13222;SDS011;6676;45.192;5.722;2023-03-01T11:44:30;22.55;;;17.75;;
13222;SDS011;6676;45.192;5.722;2023-03-01T11:47:31;29.07;;;19.05;;
13222;SDS011;6676;45.192;5.722;2023-03-01T11:50:28;24.57;;;18.82;;
13222;SDS011;6676;45.192;5.722;2023-03-01T11:53:32;25.90;;;19.27;;
13222;SDS011;6676;45.192;5.722;2023-03-01T11:56:31;25.77;;;18.65;;
13222;SDS011;6676;45.192;5.722;2023-03-01T12:06:34;25.50;;;18.23;;
13222;SDS011;6676;45.192;5.722;2023-03-01T12:09:40;23.35;;;17.37;;
13222;SDS011;6676;45.192;5.722;2023-03-01T12:15:41;23.38;;;17.42;;
13222;SDS011;6676;45.192;5.722;2023-03-01T12:18:44;21.05;;;16.10;;
13222;SDS011;6676;45.192;5.722;2023-03-01T12:21:51;22.30;;;16.27;;
13222;SDS011;6676;45.192;5.722;2023-03-01T12:25:02;24.50;;;17.90;;
13222;SDS011;6676;45.192;5.722;2023-03-01T12:28:17;23.75;;;17.20;;
13222;SDS011;6676;45.192;5.722;2023-03-01T12:35:12;24.10;;;16.77;;
13222;SDS011;6676;45.192;5.722;2023-03-01T12:38:24;20.62;;;16.30;;
13222;SDS011;6676;45.192;5.722;2023-03-01T12:44:42;22.60;;;15.55;;
13222;SDS011;6676;45.192;5.722;2023-03-01T12:47:36;24.00;;;16.85;;
13222;SDS011;6676;45.192;5.722;2023-03-01T12:50:36;22.90;;;17.12;;
13222;SDS011;6676;45.192;5.722;2023-03-01T12:53:32;23.25;;;16.05;;
13222;SDS011;6676;45.192;5.722;2023-03-01T12:56:32;24.50;;;16.93;;
13222;SDS011;6676;45.192;5.722;2023-03-01T12:59:28;22.15;;;16.87;;
13222;SDS011;6676;45.192;5.722;2023-03-01T13:02:25;25.08;;;16.90;;
13222;SDS011;6676;45.192;5.722;2023-03-01T13:05:26;22.85;;;16.15;;
13222;SDS011;6676;45.192;5.722;2023-03-01T13:08:24;22.60;;;16.93;;
13222;SDS011;6676;45.192;5.722;2023-03-01T13:11:23;21.68;;;16.93;;
13222;SDS011;6676;45.192;5.722;2023-03-01T13:17:44;20.88;;;16.73;;
13222;SDS011;6676;45.192;5.722;2023-03-01T13:20:45;22.15;;;17.35;;
13222;SDS011;6676;45.192;5.722;2023-03-01T13:23:38;22.65;;;16.93;;
13222;SDS011;6676;45.192;5.722;2023-03-01T13:26:30;23.10;;;16.65;;
13222;SDS011;6676;45.192;5.722;2023-03-01T13:29:26;21.70;;;15.72;;
13222;SDS011;6676;45.192;5.722;2023-03-01T13:32:20;21.93;;;16.55;;
13222;SDS011;6676;45.192;5.722;2023-03-01T13:38:45;22.37;;;16.87;;
13222;SDS011;6676;45.192;5.722;2023-03-01T13:41:49;20.68;;;16.27;;
13222;SDS011;6676;45.192;5.722;2023-03-01T13:44:41;22.37;;;16.35;;
13222;SDS011;6676;45.192;5.722;2023-03-01T13:47:34;21.80;;;15.07;;
13222;SDS011;6676;45.192;5.722;2023-03-01T13:50:35;19.92;;;15.40;;
13222;SDS011;6676;45.192;5.722;2023-03-01T13:53:31;21.07;;;15.70;;
13222;SDS011;6676;45.192;5.722;2023-03-01T13:56:25;21.77;;;15.58;;
13222;SDS011;6676;45.192;5.722;2023-03-01T13:59:21;16.95;;;11.65;;
13222;SDS011;6676;45.192;5.722;2023-03-01T14:02:02;20.27;;;15.60;;
13222;SDS011;6676;45.192;5.722;2023-03-01T14:05:02;18.77;;;13.00;;
13222;SDS011;6676;45.192;5.722;2023-03-01T14:07:55;17.00;;;12.05;;
13222;SDS011;6676;45.192;5.722;2023-03-01T14:14:29;16.37;;;12.18;;
13222;SDS011;6676;45.192;5.722;2023-03-01T14:20:54;22.77;;;16.35;;
13222;SDS011;6676;45.192;5.722;2023-03-01T14:23:47;20.92;;;14.28;;
13222;SDS011;6676;45.192;5.722;2023-03-01T14:27:11;20.45;;;15.78;;
13222;SDS011;6676;45.192;5.722;2023-03-01T14:30:04;18.77;;;14.73;;
13222;SDS011;6676;45.192;5.722;2023-03-01T14:33:22;21.20;;;12.85;;
13222;SDS011;6676;45.192;5.722;2023-03-01T14:36:30;23.42;;;16.23;;
13222;SDS011;6676;45.192;5.722;2023-03-01T14:39:24;18.73;;;13.28;;
13222;SDS011;6676;45.192;5.722;2023-03-01T14:42:37;23.32;;;15.72;;
13222;SDS011;6676;45.192;5.722;2023-03-01T14:45:30;20.57;;;14.87;;
13222;SDS011;6676;45.192;5.722;2023-03-01T14:48:22;18.40;;;11.63;;
13222;SDS011;6676;45.192;5.722;2023-03-01T14:51:19;21.80;;;13.50;;
13222;SDS011;6676;45.192;5.722;2023-03-01T14:54:20;19.55;;;13.70;;
13222;SDS011;6676;45.192;5.722;2023-03-01T14:57:20;22.45;;;13.90;;
13222;SDS011;6676;45.192;5.722;2023-03-01T15:00:16;18.95;;;15.35;;
13222;SDS011;6676;45.192;5.722;2023-03-01T15:03:11;21.95;;;16.07;;
13222;SDS011;6676;45.192;5.722;2023-03-01T15:06:05;15.43;;;11.80;;
13222;SDS011;6676;45.192;5.722;2023-03-01T15:08:58;18.40;;;13.65;;
13222;SDS011;6676;45.192;5.722;2023-03-01T15:11:50;17.77;;;13.18;;
13222;SDS011;6676;45.192;5.722;2023-03-01T15:14:41;23.75;;;16.35;;
13222;SDS011;6676;45.192;5.722;2023-03-01T15:17:39;19.13;;;13.57;;
13222;SDS011;6676;45.192;5.722;2023-03-01T15:20:35;19.30;;;12.33;;
13222;SDS011;6676;45.192;5.722;2023-03-01T15:23:28;20.97;;;16.17;;
13222;SDS011;6676;45.192;5.722;2023-03-01T15:26:25;18.02;;;13.75;;
13222;SDS011;6676;45.192;5.722;2023-03-01T15:29:20;22.27;;;16.37;;
13222;SDS011;6676;45.192;5.722;2023-03-01T15:32:24;18.62;;;12.95;;
13222;SDS011;6676;45.192;5.722;2023-03-01T15:35:37;21.97;;;16.67;;
13222;SDS011;6676;45.192;5.722;2023-03-01T15:38:32;22.98;;;15.72;;
13222;SDS011;6676;45.192;5.722;2023-03-01T15:41:29;22.50;;;15.83;;
13222;SDS011;6676;45.192;5.722;2023-03-01T15:44:25;25.12;;;15.60;;
13222;SDS011;6676;45.192;5.722;2023-03-01T15:50:16;20.57;;;13.70;;
13222;SDS011;6676;45.192;5.722;2023-03-01T15:53:11;20.17;;;13.70;;
13222;SDS011;6676;45.192;5.722;2023-03-01T15:56:05;18.55;;;14.13;;
13222;SDS011;6676;45.192;5.722;2023-03-01T15:58:59;21.27;;;15.28;;
13222;SDS011;6676;45.192;5.722;2023-03-01T16:01:52;16.97;;;12.95;;
13222;SDS011;6676;45.192;5.722;2023-03-01T16:04:44;19.35;;;14.60;;
13222;SDS011;6676;45.192;5.722;2023-03-01T16:07:46;18.62;;;13.80;;
13222;SDS011;6676;45.192;5.722;2023-03-01T16:10:41;19.15;;;14.25;;
13222;SDS011;6676;45.192;5.722;2023-03-01T16:13:40;18.92;;;14.10;;
13222;SDS011;6676;45.192;5.722;2023-03-01T16:16:31;21.12;;;14.55;;
13222;SDS011;6676;45.192;5.722;2023-03-01T16:19:23;22.35;;;15.40;;
13222;SDS011;6676;45.192;5.722;2023-03-01T16:22:15;22.60;;;16.70;;
13222;SDS011;6676;45.192;5.722;2023-03-01T16:25:09;19.90;;;15.20;;
13222;SDS011;6676;45.192;5.722;2023-03-01T16:28:02;21.17;;;11.38;;
13222;SDS011;6676;45.192;5.722;2023-03-01T16:30:57;19.40;;;13.83;;
13222;SDS011;6676;45.192;5.722;2023-03-01T16:33:52;15.72;;;9.35;;
13222;SDS011;6676;45.192;5.722;2023-03-01T16:36:47;18.50;;;12.53;;
13222;SDS011;6676;45.192;5.722;2023-03-01T16:39:38;19.60;;;14.35;;
13222;SDS011;6676;45.192;5.722;2023-03-01T16:42:33;17.35;;;10.43;;
13222;SDS011;6676;45.192;5.722;2023-03-01T16:45:27;22.75;;;14.45;;
13222;SDS011;6676;45.192;5.722;2023-03-01T16:48:21;22.27;;;16.25;;
13222;SDS011;6676;45.192;5.722;2023-03-01T16:51:05;18.52;;;14.28;;
13222;SDS011;6676;45.192;5.722;2023-03-01T16:53:57;16.65;;;11.25;;
13222;SDS011;6676;45.192;5.722;2023-03-01T16:56:48;23.30;;;17.32;;
13222;SDS011;6676;45.192;5.722;2023-03-01T16:59:40;21.20;;;14.38;;
13222;SDS011;6676;45.192;5.722;2023-03-01T17:02:32;16.32;;;11.90;;
13222;SDS011;6676;45.192;5.722;2023-03-01T17:05:24;18.65;;;13.35;;
13222;SDS011;6676;45.192;5.722;2023-03-01T17:08:20;22.13;;;14.70;;
13222;SDS011;6676;45.192;5.722;2023-03-01T17:11:12;22.22;;;15.40;;
13222;SDS011;6676;45.192;5.722;2023-03-01T17:14:05;22.82;;;17.75;;
13222;SDS011;6676;45.192;5.722;2023-03-01T17:16:57;22.32;;;15.60;;
13222;SDS011;6676;45.192;5.722;2023-03-01T17:19:50;18.50;;;12.10;;
13222;SDS011;6676;45.192;5.722;2023-03-01T17:22:44;19.55;;;14.05;;
13222;SDS011;6676;45.192;5.722;2023-03-01T17:25:36;20.52;;;14.23;;
13222;SDS011;6676;45.192;5.722;2023-03-01T17:28:33;23.07;;;16.40;;
13222;SDS011;6676;45.192;5.722;2023-03-01T17:31:26;19.95;;;13.30;;
13222;SDS011;6676;45.192;5.722;2023-03-01T17:34:18;19.75;;;13.15;;
13222;SDS011;6676;45.192;5.722;2023-03-01T17:37:09;20.80;;;14.93;;
13222;SDS011;6676;45.192;5.722;2023-03-01T17:40:01;21.27;;;15.10;;
13222;SDS011;6676;45.192;5.722;2023-03-01T17:42:54;21.57;;;15.45;;
13222;SDS011;6676;45.192;5.722;2023-03-01T17:45:46;23.00;;;15.65;;
13222;SDS011;6676;45.192;5.722;2023-03-01T17:48:39;22.67;;;15.50;;
13222;SDS011;6676;45.192;5.722;2023-03-01T17:51:19;21.52;;;14.35;;
13222;SDS011;6676;45.192;5.722;2023-03-01T17:54:11;21.95;;;16.75;;
13222;SDS011;6676;45.192;5.722;2023-03-01T17:57:07;22.87;;;15.90;;